createdAt,value
2023-04-13T00:04:10.005Z,10.70
2023-04-13T00:09:12.933Z,10.50
2023-04-13T00:14:15.451Z,10.80
2023-04-13T00:19:18.023Z,10.80
2023-04-13T00:24:21.077Z,10.90
2023-04-13T00:29:23.884Z,10.80
2023-04-13T00:34:26.474Z,10.80
2023-04-13T00:39:31.136Z,10.80
2023-04-13T00:44:33.666Z,10.70
2023-04-13T00:49:36.525Z,10.80
2023-04-13T00:54:39.266Z,10.80
2023-04-13T00:59:41.809Z,10.50
2023-04-13T01:04:45.916Z,10.20
2023-04-13T01:10:08.876Z,9.90
2023-04-13T01:15:16.519Z,9.80
2023-04-13T01:20:20.224Z,9.50
2023-04-13T01:25:31.826Z,9.20
2023-04-13T01:30:36.071Z,8.90
2023-04-13T01:35:39.829Z,9.20
2023-04-13T01:40:44.653Z,9.20
2023-04-13T01:45:54.018Z,9.50
2023-04-13T01:51:20.299Z,9.50
2023-04-13T01:56:28.632Z,9.70
2023-04-13T02:01:38.461Z,9.70
2023-04-13T02:06:41.064Z,9.80
2023-04-13T02:11:44.354Z,9.90
2023-04-13T02:16:47.511Z,9.90
2023-04-13T02:21:50.570Z,9.90
2023-04-13T02:26:54.472Z,10.00
2023-04-13T02:31:57.921Z,9.80
2023-04-13T02:37:00.998Z,9.30
2023-04-13T02:42:04.362Z,9.20
2023-04-13T02:47:09.557Z,9.00
2023-04-13T02:52:13.409Z,8.90
2023-04-13T02:57:25.249Z,9.00
2023-04-13T03:02:30.205Z,9.00
2023-04-13T03:07:34.321Z,8.50
2023-04-13T03:12:37.654Z,8.70
2023-04-13T03:17:44.122Z,8.90
2023-04-13T03:22:53.651Z,9.00
2023-04-13T03:27:58.284Z,9.30
2023-04-13T03:33:04.603Z,9.40
2023-04-13T03:38:11.531Z,9.50
2023-04-13T03:43:18.601Z,9.10
2023-04-13T03:48:27.970Z,9.30
2023-04-13T03:53:30.493Z,9.00
2023-04-13T03:58:33.413Z,9.10
2023-04-13T04:03:38.512Z,9.30
2023-04-13T04:08:45.484Z,9.10
2023-04-13T04:14:01.062Z,9.10
2023-04-13T04:19:04.284Z,9.20
2023-04-13T04:24:08.913Z,9.20
2023-04-13T04:29:14.244Z,9.20
2023-04-13T04:34:17.283Z,9.20
2023-04-13T04:39:23.816Z,9.40
2023-04-13T04:44:34.219Z,9.50
2023-04-13T04:49:41.850Z,9.70
2023-04-13T04:54:44.720Z,9.90
2023-04-13T04:59:49.356Z,10.30
2023-04-13T05:04:53.326Z,10.20
2023-04-13T05:09:58.053Z,10.50
2023-04-13T05:15:01.884Z,10.50
2023-04-13T05:20:07.220Z,10.40
2023-04-13T05:25:41.857Z,10.50
2023-04-13T05:30:52.531Z,10.60
2023-04-13T05:35:55.601Z,10.80
2023-04-13T05:40:58.929Z,10.70
2023-04-13T05:46:01.936Z,10.30
2023-04-13T05:51:04.677Z,10.20
2023-04-13T05:56:09.686Z,9.90
2023-04-13T06:01:14.686Z,9.80
2023-04-13T06:06:17.594Z,9.80
2023-04-13T06:11:21.006Z,9.80
2023-04-13T06:16:24.029Z,9.70
2023-04-13T06:21:28.639Z,9.70
2023-04-13T06:26:31.702Z,9.70
2023-04-13T06:31:34.498Z,9.80
2023-04-13T06:36:41.797Z,9.70
2023-04-13T06:41:47.908Z,9.90
2023-04-13T06:46:57.812Z,10.20
2023-04-13T06:52:02.672Z,10.30
2023-04-13T06:57:05.477Z,10.30
2023-04-13T07:02:09.757Z,10.60
2023-04-13T07:07:13.038Z,10.70
2023-04-13T07:12:16.036Z,10.60
2023-04-13T07:17:19.937Z,10.60
2023-04-13T07:22:22.760Z,10.60
2023-04-13T07:27:27.927Z,10.60
2023-04-13T07:32:31.661Z,10.60
2023-04-13T07:37:35.522Z,10.80
2023-04-13T07:42:39.573Z,11.20
2023-04-13T07:47:42.097Z,11.30
2023-04-13T07:52:46.312Z,11.60
2023-04-13T07:57:50.651Z,11.80
2023-04-13T08:02:55.326Z,11.90
2023-04-13T08:07:59.357Z,12.00
2023-04-13T08:13:02.246Z,12.10
2023-04-13T08:18:05.334Z,12.20
2023-04-13T08:23:09.278Z,12.40
2023-04-13T08:28:13.434Z,12.70
2023-04-13T08:33:16.276Z,12.90
2023-04-13T08:38:20.049Z,13.10
2023-04-13T08:43:25.944Z,13.00
2023-04-13T08:48:36.182Z,12.90
2023-04-13T08:53:46.713Z,13.00
2023-04-13T08:59:02.072Z,13.20
2023-04-13T09:04:10.004Z,13.50
2023-04-13T09:09:18.445Z,13.90
2023-04-13T09:14:22.101Z,14.10
2023-04-13T09:19:32.576Z,14.30
2023-04-13T09:24:41.606Z,14.50
2023-04-13T09:29:52.369Z,14.20
2023-04-13T09:35:05.378Z,14.50
2023-04-13T09:40:11.492Z,15.00
2023-04-13T09:45:13.913Z,15.20
2023-04-13T09:50:22.856Z,15.50
2023-04-13T09:55:25.363Z,15.50
2023-04-13T10:00:27.880Z,15.40
2023-04-13T10:05:39.268Z,15.40
2023-04-13T10:10:50.875Z,15.60
2023-04-13T10:16:11.276Z,15.70
2023-04-13T10:21:15.412Z,15.70
2023-04-13T10:26:17.899Z,15.90
2023-04-13T10:31:21.754Z,16.00
2023-04-13T10:36:34.980Z,15.70
2023-04-13T10:41:38.219Z,16.00
2023-04-13T10:46:51.058Z,16.00
2023-04-13T10:51:53.997Z,15.90
2023-04-13T10:56:58.284Z,16.00
2023-04-13T11:02:01.833Z,16.10
2023-04-13T11:07:07.961Z,16.20
2023-04-13T11:12:13.116Z,16.30
2023-04-13T11:17:17.765Z,16.40
2023-04-13T11:22:27.774Z,16.20
2023-04-13T11:27:30.615Z,16.20
2023-04-13T11:32:34.527Z,16.20
2023-04-13T11:37:47.035Z,16.20
2023-04-13T11:42:53.333Z,16.60
2023-04-13T11:47:57.404Z,16.70
2023-04-13T11:53:00.147Z,16.60
2023-04-13T11:58:16.633Z,16.60
2023-04-13T12:08:28.073Z,16.80
2023-04-13T12:13:51.877Z,16.60
2023-04-13T12:19:09.893Z,16.20
2023-04-13T12:24:13.173Z,15.80
2023-04-13T12:29:15.743Z,15.50
2023-04-13T12:34:18.737Z,15.10
2023-04-13T12:39:21.347Z,14.70
2023-04-13T12:44:24.009Z,14.80
2023-04-13T12:49:26.509Z,14.80
2023-04-13T12:54:30.803Z,14.80
2023-04-13T12:59:33.261Z,14.80
2023-04-13T13:04:36.315Z,14.90
2023-04-13T13:09:38.791Z,14.50
2023-04-13T13:14:41.377Z,14.30
2023-04-13T13:19:43.777Z,14.10
2023-04-13T13:24:46.281Z,14.20
2023-04-13T13:29:48.748Z,14.10
2023-04-13T13:34:51.135Z,13.80
2023-04-13T13:39:54.116Z,13.70
2023-04-13T13:44:56.655Z,13.30
2023-04-13T13:50:00.437Z,13.00
2023-04-13T13:55:11.815Z,12.70
2023-04-13T14:00:19.062Z,12.40
2023-04-13T14:05:22.563Z,12.20
2023-04-13T14:10:24.966Z,11.90
2023-04-13T14:15:27.650Z,11.70
2023-04-13T14:20:31.203Z,12.50
2023-04-13T14:25:33.636Z,12.50
2023-04-13T14:30:36.220Z,12.30
2023-04-13T14:35:38.922Z,12.30
2023-04-13T14:40:41.650Z,12.30
2023-04-13T14:45:44.095Z,12.40
2023-04-13T14:50:47.349Z,12.10
2023-04-13T14:55:49.876Z,12.20
2023-04-13T15:00:52.269Z,11.30
2023-04-13T15:06:01.282Z,10.90
2023-04-13T15:11:06.349Z,10.90
2023-04-13T15:16:08.966Z,10.60
2023-04-13T15:21:11.393Z,10.40
2023-04-13T15:26:18.227Z,10.30
2023-04-13T15:31:22.219Z,10.30
2023-04-13T15:36:24.817Z,10.20
2023-04-13T15:41:27.824Z,10.20
2023-04-13T15:46:30.488Z,10.20
2023-04-13T15:51:32.958Z,10.20
2023-04-13T15:56:35.621Z,10.40
2023-04-13T16:01:49.679Z,10.50
2023-04-13T16:07:04.994Z,10.60
2023-04-13T16:12:12.486Z,10.60
2023-04-13T16:17:15.505Z,10.70
2023-04-13T16:22:18.012Z,10.80
2023-04-13T16:27:20.536Z,11.00
2023-04-13T16:32:23.137Z,11.10
2023-04-13T16:37:25.733Z,11.20
2023-04-13T16:42:28.268Z,11.20
2023-04-13T16:47:32.387Z,11.00
2023-04-13T16:52:35.750Z,10.80
2023-04-13T16:57:38.274Z,10.80
2023-04-13T17:02:42.504Z,10.50
2023-04-13T17:07:47.726Z,10.40
2023-04-13T17:12:50.266Z,10.60
2023-04-13T17:17:52.786Z,10.90
2023-04-13T17:22:57.234Z,10.40
2023-04-13T17:27:59.678Z,10.30
2023-04-13T17:33:02.444Z,10.30
2023-04-13T17:38:05.683Z,10.20
2023-04-13T17:43:09.226Z,10.20
2023-04-13T17:48:11.764Z,10.20
2023-04-13T17:53:14.269Z,10.30
2023-04-13T17:58:16.771Z,10.40
2023-04-13T18:03:19.522Z,10.40
2023-04-13T18:08:22.159Z,10.50
2023-04-13T18:13:25.901Z,10.50
2023-04-13T18:18:28.492Z,10.30
2023-04-13T18:23:31.018Z,10.30
2023-04-13T18:28:39.037Z,10.40
2023-04-13T18:33:41.627Z,10.40
2023-04-13T18:38:45.279Z,10.70
2023-04-13T18:43:47.716Z,10.90
2023-04-13T18:48:50.454Z,10.80
2023-04-13T18:53:52.985Z,10.70
2023-04-13T18:58:55.493Z,10.70
2023-04-13T19:03:57.988Z,10.70
2023-04-13T19:09:00.665Z,10.70
2023-04-13T19:14:03.560Z,10.70
2023-04-13T19:19:06.150Z,10.70
2023-04-13T19:24:11.421Z,10.60
2023-04-13T19:29:14.637Z,10.50
2023-04-13T19:34:17.163Z,10.60
2023-04-13T19:39:19.676Z,10.30
2023-04-13T19:44:22.140Z,10.20
2023-04-13T19:49:25.833Z,10.00
2023-04-13T19:54:28.528Z,9.90
2023-04-13T19:59:31.156Z,9.80
2023-04-13T20:04:33.908Z,9.80
2023-04-13T20:09:36.510Z,9.90
2023-04-13T20:14:42.225Z,9.80
2023-04-13T20:19:44.959Z,9.80
2023-04-13T20:24:48.240Z,9.80
2023-04-13T20:29:51.992Z,9.70
2023-04-13T20:34:55.568Z,9.60
2023-04-13T20:39:58.206Z,9.60
2023-04-13T20:45:01.765Z,9.60
2023-04-13T20:50:04.809Z,9.70
2023-04-13T20:55:09.848Z,9.70
2023-04-13T21:00:15.515Z,9.80
2023-04-13T21:05:22.139Z,9.90
2023-04-13T21:10:24.812Z,9.90
2023-04-13T21:15:27.334Z,10.00
2023-04-13T21:20:29.841Z,9.90
2023-04-13T21:25:32.260Z,9.80
2023-04-13T21:30:34.677Z,9.80
2023-04-13T21:35:37.248Z,9.80
2023-04-13T21:40:39.936Z,9.70
2023-04-13T21:45:42.691Z,9.60
2023-04-13T21:50:45.083Z,9.50
2023-04-13T21:55:47.886Z,9.40
2023-04-13T22:00:50.455Z,9.30
2023-04-13T22:05:52.882Z,9.30
2023-04-13T22:10:55.609Z,9.10
2023-04-13T22:15:58.187Z,9.10
2023-04-13T22:21:00.903Z,9.10
2023-04-13T22:26:03.401Z,9.00
2023-04-13T22:31:08.149Z,9.10
2023-04-13T22:36:21.331Z,9.00
2023-04-13T22:41:23.796Z,8.90
2023-04-13T22:46:26.473Z,9.00
2023-04-13T22:51:31.811Z,8.90
2023-04-13T22:56:34.789Z,8.90
2023-04-13T23:01:37.386Z,8.80
2023-04-13T23:06:39.828Z,8.80
2023-04-13T23:11:42.289Z,8.70
2023-04-13T23:16:44.889Z,8.60
2023-04-13T23:21:47.648Z,8.50
2023-04-13T23:26:50.075Z,8.40
2023-04-13T23:31:56.389Z,8.40
2023-04-13T23:36:58.863Z,8.40
2023-04-13T23:42:01.898Z,8.40
2023-04-13T23:47:04.438Z,8.40
2023-04-13T23:52:07.726Z,8.50
2023-04-13T23:57:11.597Z,8.40
